Latest Weather Observations for Karratha

IDW60801

Issued at 11:34 am WST Wednesday 22 February 2017 (issued every 30 minutes, with the page automatically refreshed every 10 minutes)

About weather observations | Map of weather stations | Latest weather observations for WA | Other Formats
Station Details ID: 004083 Name: KARRATHA AERO Lat: -20.71 Lon: 116.77 Height: 5.3 m
Data from the previous 72 hours. | See also: Recent months at Karratha
Date/Time
WST
Temp
°C
App
Temp
°C
Dew
Point
°C
Rel
Hum
%
Delta-T
°C
Wind Press
QNH
hPa
Press
MSL
hPa
Rain since
9am
mm
Dir  Spd
km/h
Gust
km/h
Spd
kts
Gust
kts
22/11:30am 37.1 37.0 19.5 35 11.7 ESE 19 33 10 18 1010.0 1010.0 0.0
22/11:00am 36.6 35.5 19.5 36 11.4 SE 24 33 13 18 1010.3 1010.3 0.0
22/10:30am 37.0 36.5 19.9 36 11.4 SE 22 37 12 20 1010.7 1010.7 0.0
22/10:00am 36.3 36.1 19.7 37 11.1 SSE 20 32 11 17 1010.9 1010.9 0.0
22/09:30am 35.0 35.0 20.2 42 9.9 SSE 20 28 11 15 1010.9 1010.9 0.0
22/09:00am 34.3 34.0 20.3 44 9.4 SSE 22 28 12 15 1011.0 1011.0 0.0
22/08:30am 33.2 34.4 20.0 45 8.8 S 13 17 7 9 1011.1 1011.1 0.0
22/08:00am 31.5 33.7 21.1 54 7.0 SW 11 17 6 9 1011.1 1011.1 0.0
22/07:30am 32.2 34.1 20.5 50 7.8 SSE 11 15 6 8 1010.7 1010.7 0.0
22/07:00am 30.6 33.2 21.9 59 5.9 SE 11 13 6 7 1009.8 1009.8 0.0
22/06:30am 29.4 31.0 22.1 65 4.9 SE 17 19 9 10 1009.8 1009.8 0.0
22/06:00am 29.3 32.4 22.8 68 4.4 SE 11 13 6 7 1009.8 1009.8 0.0
22/05:30am 29.5 33.7 24.1 72 3.7 SE 9 13 5 7 1009.1 1009.0 0.0
22/05:00am 29.5 36.3 26.1 82 2.4 S 2 6 1 3 1008.9 1008.8 0.0
22/04:30am 29.7 35.7 26.3 82 2.4 SW 7 11 4 6 1008.6 1008.5 0.0
22/04:00am 30.3 35.6 25.8 77 3.2 SW 9 11 5 6 1008.4 1008.3 0.0
22/03:30am 31.2 35.8 25.3 71 4.2 WSW 11 15 6 8 1008.1 1008.0 0.0
22/03:00am 31.1 35.9 26.8 78 3.1 W 15 20 8 11 1008.1 1008.0 0.0
22/02:30am 30.9 35.2 26.6 78 3.1 WNW 17 20 9 11 1008.3 1008.2 0.0
22/02:00am 31.4 35.0 26.4 75 3.6 W 20 24 11 13 1008.3 1008.2 0.0
22/01:30am 31.4 35.4 26.2 74 3.7 W 17 20 9 11 1008.4 1008.3 0.0
22/01:00am 31.3 35.4 26.3 75 3.6 WNW 17 20 9 11 1008.6 1008.5 0.0
22/12:30am 31.2 34.6 26.2 75 3.6 W 20 24 11 13 1008.7 1008.6 0.0
22/12:00am 31.2 34.1 26.5 76 3.4 W 24 28 13 15 1008.9 1008.8 0.0
 
Date/Time
WST
Temp
°C
App
Temp
°C
Dew
Point
°C
Rel
Hum
%
Delta-T
°C
Wind Press
QNH
hPa
Press
MSL
hPa
Rain since
9am
mm
Dir  Spd
km/h
Gust
km/h
Spd
kts
Gust
kts
21/11:30pm 31.2 33.9 26.2 75 3.6 W 24 30 13 16 1009.2 1009.1 0.0
21/11:00pm 31.2 33.9 26.2 75 3.6 WNW 24 33 13 18 1009.2 1009.1 0.0
21/10:30pm 31.5 34.6 26.3 74 3.7 WNW 22 30 12 16 1009.2 1009.1 0.0
21/10:00pm 31.6 34.3 25.7 71 4.2 WNW 22 30 12 16 1009.3 1009.2 0.0
21/09:30pm 31.4 35.2 26.4 75 3.6 NW 19 24 10 13 1009.3 1009.2 0.0
21/09:00pm 31.8 36.7 26.4 73 3.9 WSW 13 20 7 11 1009.6 1009.6 0.0
21/08:30pm 31.6 35.5 26.6 75 3.6 WNW 19 24 10 13 1009.3 1009.2 0.0
21/08:00pm 31.6 35.4 26.4 74 3.7 WNW 19 24 10 13 1009.1 1009.0 0.0
21/07:30pm 31.3 35.4 27.2 79 3.0 NW 20 28 11 15 1008.8 1008.7 0.0
21/07:00pm 31.5 34.5 26.7 75 3.5 NW 24 28 13 15 1008.4 1008.3 0.0
21/06:30pm 32.1 34.8 26.2 71 4.2 NW 24 30 13 16 1007.7 1007.6 0.0
21/06:00pm 33.0 36.2 25.8 66 5.1 NW 20 28 11 15 1007.3 1007.2 0.0
21/05:30pm 33.9 35.1 23.9 56 7.0 NW 24 30 13 16 1006.9 1006.8 0.0
21/05:00pm 34.2 35.9 24.7 57 6.7 NW 24 30 13 16 1006.7 1006.6 0.0
21/04:30pm 34.9 37.1 24.8 55 7.1 NW 22 30 12 16 1006.7 1006.6 0.0
21/04:00pm 35.1 37.4 25.0 56 7.2 NW 22 28 12 15 1006.6 1006.5 0.0
21/03:30pm 35.2 37.0 24.2 53 7.7 NW 22 28 12 15 1006.9 1006.8 0.0
21/03:00pm 35.5 37.2 24.1 51 8.0 NW 22 30 12 16 1006.9 1006.8 0.0
21/02:30pm 35.3 37.5 25.5 57 7.0 NNW 24 32 13 17 1007.0 1006.9 0.0
21/02:00pm 37.0 38.9 23.8 46 9.3 NNW 20 28 11 15 1007.2 1007.1 0.0
21/01:30pm 36.5 38.2 23.0 45 9.4 NNW 19 24 10 13 1007.5 1007.4 0.0
21/01:00pm 36.3 37.7 22.8 45 9.4 NNW 20 26 11 14 1007.8 1007.7 0.0
21/12:30pm 36.8 38.2 21.8 42 10.3 N 17 20 9 11 1008.2 1008.1 0.0
21/12:00pm 37.5 38.7 19.9 35 11.8 NNW 13 15 7 8 1008.5 1008.4 0.0
21/11:30am 36.7 37.8 20.5 39 10.9 NW 15 19 8 10 1008.7 1008.6 0.0
21/11:00am 36.7 38.6 21.3 40 10.5 WNW 13 17 7 9 1009.0 1008.9 0.0
21/10:30am 36.6 39.6 20.0 38 11.1 SSW 4 9 2 5 1009.5 1009.5 0.0
21/10:00am 35.9 38.0 21.0 42 10.1 SW 11 15 6 8 1009.5 1009.5 0.0
21/09:30am 34.8 37.9 22.8 49 8.3 SSW 11 17 6 9 1009.7 1009.7 0.0
21/09:00am 33.2 35.9 23.5 56 6.7 SW 15 22 8 12 1009.8 1009.8 0.0
21/08:30am 32.3 34.2 22.7 57 6.6 SW 17 24 9 13 1009.8 1009.8 0.0
21/08:00am 31.1 32.6 22.7 61 5.8 SW 19 24 10 13 1009.6 1009.6 0.0
21/07:30am 30.1 32.1 24.0 70 4.2 SW 20 26 11 14 1009.4 1009.3 0.0
21/07:00am 29.1 33.3 26.5 86 1.9 SW 17 22 9 12 1009.0 1008.9 0.0
21/06:30am 29.1 33.2 26.3 85 2.0 WSW 17 22 9 12 1008.8 1008.7 0.0
21/06:00am 28.9 32.9 26.7 88 1.6 SW 19 22 10 12 1008.8 1008.7 0.0
21/05:30am 28.8 32.8 27.0 90 1.3 WSW 20 24 11 13 1008.6 1008.5 0.0
21/05:00am 28.3 33.0 26.7 91 1.1 SW 15 19 8 10 1008.5 1008.4 0.0
21/04:30am 27.8 32.2 26.2 91 1.1 SW 15 19 8 10 1008.3 1008.2 0.0
21/04:00am 27.7 32.9 26.3 92 1.0 SW 11 15 6 8 1008.1 1008.0 0.0
21/03:30am 28.0 33.1 26.2 90 1.3 SW 11 13 6 7 1008.2 1008.1 0.0
21/03:00am 29.2 33.7 26.4 85 2.0 WSW 15 17 8 9 1008.3 1008.2 0.0
21/02:30am 29.3 33.6 26.1 83 2.3 WSW 15 19 8 10 1008.4 1008.3 0.0
21/02:00am 29.5 33.2 25.7 80 2.7 WSW 17 20 9 11 1008.5 1008.4 0.0
21/01:30am 29.7 32.5 25.2 77 3.2 WSW 20 26 11 14 1008.7 1008.6 0.0
21/01:00am 29.7 32.5 25.2 77 3.2 WSW 20 24 11 13 1009.0 1008.9 0.0
21/12:30am 29.5 33.0 25.5 79 2.8 WSW 17 22 9 12 1009.1 1009.0 0.0
21/12:00am 29.7 33.0 25.7 79 2.8 WSW 19 22 10 12 1009.4 1009.3 0.0
 
Date/Time
WST
Temp
°C
App
Temp
°C
Dew
Point
°C
Rel
Hum
%
Delta-T
°C
Wind Press
QNH
hPa
Press
MSL
hPa
Rain since
9am
mm
Dir  Spd
km/h
Gust
km/h
Spd
kts
Gust
kts
20/11:30pm 29.8 33.7 26.6 83 2.3 WSW 19 24 10 13 1009.7 1009.7 0.0
20/11:00pm 30.0 34.0 27.0 84 2.2 WSW 20 26 11 14 1009.7 1009.7 0.0
20/10:30pm 30.1 33.7 26.5 81 2.6 WSW 20 26 11 14 1009.5 1009.5 0.0
20/10:00pm 30.3 33.6 26.0 78 3.1 W 20 24 11 13 1009.4 1009.3 0.0
20/09:30pm 30.3 33.6 26.0 78 3.1 W 20 24 11 13 1009.2 1009.1 0.0
20/09:00pm 30.7 33.9 25.8 75 3.5 W 20 24 11 13 1008.9 1008.8 0.0
20/08:30pm 30.7 33.3 25.5 74 3.7 W 22 26 12 14 1008.7 1008.6 0.0
20/08:00pm 30.6 33.3 25.7 75 3.5 W 22 26 12 14 1008.4 1008.3 0.0
20/07:30pm 30.9 34.3 25.3 72 4.0 WNW 17 22 9 12 1008.3 1008.2 0.0
20/07:00pm 30.9 33.9 26.2 76 3.4 WNW 22 30 12 16 1007.4 1007.3 0.0
20/06:30pm 31.9 34.2 25.7 69 4.4 NW 24 30 13 16 1007.2 1007.1 0.0
20/06:00pm 33.5 34.6 22.3 52 7.7 NW 20 28 11 15 1006.8 1006.7 0.0
20/05:30pm 33.3 34.9 23.3 55 6.9 NW 20 28 11 15 1006.5 1006.4 0.0
20/05:00pm 34.3 36.6 24.5 56 6.9 NNW 20 26 11 14 1006.4 1006.3 0.0
20/04:30pm 34.4 37.2 24.3 55 7.1 NNW 17 22 9 12 1006.5 1006.4 0.0
20/04:00pm 35.1 37.8 24.1 53 7.7 NNW 17 24 9 13 1006.6 1006.5 0.0
20/03:30pm 36.3 35.4 15.9 29 12.9 NNE 15 20 8 11 1006.8 1006.7 0.0
20/03:00pm 36.0 35.2 17.2 33 12.1 NE 17 22 9 12 1007.0 1006.9 0.0
20/02:30pm 36.0 35.8 18.6 36 11.4 NE 17 24 9 13 1007.1 1007.0 0.0
20/02:00pm 36.1 35.8 19.5 37 11.0 NE 20 24 11 13 1007.2 1007.1 0.0
20/01:30pm 35.5 35.5 19.8 39 10.5 NNE 19 28 10 15 1007.4 1007.3 0.0
20/01:00pm 36.7 38.0 21.7 42 10.3 NNE 17 24 9 13 1007.7 1007.6 0.0
20/12:30pm 35.6 36.2 20.3 40 10.3 NE 17 22 9 12 1008.1 1008.0 0.0
20/12:00pm 35.2 35.8 21.1 43 9.6 NE 19 26 10 14 1008.5 1008.4 0.0
20/11:30am 35.4 37.7 23.4 50 8.4 NNE 17 24 9 13 1008.7 1008.6 0.0
20/11:00am 34.8 38.2 24.1 53 7.5 NNE 13 19 7 10 1008.9 1008.8 0.0
20/10:30am 34.7 38.5 24.0 53 7.5 ENE 11 17 6 9 1009.1 1009.0 0.0
20/10:00am 34.2 38.6 24.5 57 6.8 NNE 9 15 5 8 1009.4 1009.3 0.0
20/09:30am 32.1 37.4 25.2 67 4.9 NW 7 11 4 6 1009.6 1009.6 0.0
20/09:00am 31.4 36.7 25.3 70 4.3 NW 7 11 4 6 1009.7 1009.7 0.0
20/08:30am 31.4 37.0 24.8 68 4.6 W 4 9 2 5 1009.7 1009.7 0.0
20/08:00am 30.4 35.7 25.0 73 3.8 SW 6 9 3 5 1009.6 1009.6 0.0
20/07:30am 29.9 34.0 25.2 76 3.3 SW 13 15 7 8 1009.5 1009.5 0.0
20/07:00am 29.3 33.2 25.5 80 2.7 WSW 15 19 8 10 1009.4 1009.3 0.0
20/06:30am 28.3 33.4 26.1 88 1.6 SW 11 13 6 7 1009.2 1009.1 0.0
20/06:00am 27.9 32.1 25.9 89 1.4 SW 15 17 8 9 1009.1 1009.0 0.0
20/05:30am 28.9 32.4 26.3 86 1.9 SW 20 24 11 13 1008.8 1008.7 0.0
20/05:00am 29.4 31.4 25.2 78 3.0 WSW 24 33 13 18 1008.4 1008.3 0.0
20/04:30am 29.4 30.5 24.9 77 3.2 WSW 28 33 15 18 1008.3 1008.2 0.0
20/04:00am 29.4 32.6 25.8 81 2.6 WSW 20 26 11 14 1008.4 1008.3 0.0
20/03:30am 29.4 33.5 26.4 84 2.1 WSW 17 20 9 11 1008.4 1008.3 0.0
20/03:00am 29.6 33.5 26.0 81 2.6 WSW 17 20 9 11 1008.4 1008.3 0.0
20/02:30am 29.6 33.8 26.0 81 2.6 W 15 17 8 9 1008.4 1008.3 0.0
20/02:00am 29.7 33.9 25.9 80 2.7 WSW 15 19 8 10 1008.8 1008.7 0.0
20/01:30am 29.5 34.2 25.5 79 2.8 WSW 11 15 6 8 1008.9 1008.8 0.0
20/01:00am 28.7 34.0 25.9 85 2.0 SW 9 11 5 6 1009.1 1009.0 0.0
20/12:30am 29.1 34.0 25.9 83 2.3 SW 11 15 6 8 1009.4 1009.3 0.0
20/12:00am 29.2 33.4 26.0 83 2.3 SW 15 19 8 10 1009.4 1009.3 0.0
 
Date/Time
WST
Temp
°C
App
Temp
°C
Dew
Point
°C
Rel
Hum
%
Delta-T
°C
Wind Press
QNH
hPa
Press
MSL
hPa
Rain since
9am
mm
Dir  Spd
km/h
Gust
km/h
Spd
kts
Gust
kts
19/11:30pm 29.4 33.4 26.2 83 2.3 SW 17 20 9 11 1009.6 1009.6 0.0
19/11:00pm 29.3 33.4 26.3 84 2.1 SW 17 22 9 12 1009.7 1009.7 0.0
19/10:30pm 29.8 33.8 26.2 81 2.6 WSW 17 19 9 10 1009.4 1009.3 0.0
19/10:00pm 30.0 33.9 26.0 79 2.8 WSW 17 20 9 11 1009.4 1009.3 0.0
19/09:30pm 30.3 34.3 25.6 76 3.3 WSW 15 19 8 10 1009.3 1009.2 0.0
19/09:00pm 30.5 34.3 25.3 74 3.7 W 15 20 8 11 1009.2 1009.1 0.0
19/08:30pm 30.6 33.6 25.2 73 3.8 W 19 20 10 11 1009.2 1009.1 0.0
19/08:00pm 30.8 34.5 25.8 74 3.6 W 17 24 9 13 1008.9 1008.8 0.0
19/07:30pm 30.9 34.3 25.3 72 4.0 WNW 17 20 9 11 1008.6 1008.5 0.0
19/07:00pm 31.2 34.9 25.1 70 4.3 WNW 15 20 8 11 1008.3 1008.2 0.0
19/06:30pm 32.0 35.4 24.6 65 5.2 NW 15 20 8 11 1008.0 1007.9 0.0
19/06:00pm 32.5 35.6 24.8 64 5.4 NW 17 20 9 11 1007.8 1007.7 0.0
19/05:30pm 33.2 36.6 25.2 63 5.7 NW 17 20 9 11 1007.7 1007.6 0.0
19/05:00pm 33.3 35.9 23.9 58 6.6 NW 17 20 9 11 1007.5 1007.4 0.0
19/04:30pm 33.5 36.5 24.7 60 6.2 NW 17 20 9 11 1007.6 1007.5 0.0
19/04:00pm 33.5 36.2 24.7 60 6.2 NNW 19 24 10 13 1007.8 1007.7 0.0
19/03:30pm 34.1 37.5 25.8 62 5.9 NNW 19 24 10 13 1008.0 1007.9 0.0
19/03:00pm 34.0 37.1 24.8 58 6.5 N 17 24 9 13 1008.3 1008.2 0.0
19/02:30pm 34.1 36.9 24.9 58 6.5 NNW 19 26 10 14 1008.4 1008.3 0.0
19/02:00pm 34.7 37.5 24.3 54 7.3 NNW 17 24 9 13 1008.7 1008.6 0.0
19/01:30pm 34.1 37.6 24.9 58 6.5 N 15 24 8 13 1009.0 1008.9 0.0
19/01:00pm 35.0 38.2 24.9 55 7.2 NNW 17 22 9 12 1009.1 1009.0 0.0
19/12:30pm 35.1 38.7 24.4 54 7.5 NNW 13 20 7 11 1009.2 1009.1 0.0
19/12:00pm 34.5 37.7 24.4 55 7.1 NNW 15 20 8 11 1009.5 1009.5 0.0

Other Formats:

Comma delimited format used in spreadsheet applications
http://www.bom.gov.au/fwo/IDW60801/IDW60801.95307.axf

JavaScript Object Notation format (JSON) in row-major order
http://www.bom.gov.au/fwo/IDW60801/IDW60801.95307.json